sensor_id;sensor_type;location;lat;lon;timestamp;P1;durP1;ratioP1;P2;durP2;ratioP2
53022;SDS011;38913;44.338;11.206;2023-01-05T00:01:56;29.17;;;15.05;;
53022;SDS011;38913;44.338;11.206;2023-01-05T00:04:21;30.27;;;14.95;;
53022;SDS011;38913;44.338;11.206;2023-01-05T00:06:47;27.65;;;14.88;;
53022;SDS011;38913;44.338;11.206;2023-01-05T00:09:14;27.65;;;15.10;;
53022;SDS011;38913;44.338;11.206;2023-01-05T00:11:41;28.00;;;14.90;;
53022;SDS011;38913;44.338;11.206;2023-01-05T00:14:26;26.95;;;14.52;;
53022;SDS011;38913;44.338;11.206;2023-01-05T00:19:58;26.13;;;14.18;;
53022;SDS011;38913;44.338;11.206;2023-01-05T00:22:49;27.48;;;13.73;;
53022;SDS011;38913;44.338;11.206;2023-01-05T00:25:17;25.90;;;13.60;;
53022;SDS011;38913;44.338;11.206;2023-01-05T00:27:48;25.85;;;14.23;;
53022;SDS011;38913;44.338;11.206;2023-01-05T00:30:16;22.65;;;13.18;;
53022;SDS011;38913;44.338;11.206;2023-01-05T00:32:46;26.13;;;13.68;;
53022;SDS011;38913;44.338;11.206;2023-01-05T00:35:12;26.08;;;13.68;;
53022;SDS011;38913;44.338;11.206;2023-01-05T00:37:39;26.17;;;12.90;;
53022;SDS011;38913;44.338;11.206;2023-01-05T00:40:06;23.35;;;14.38;;
53022;SDS011;38913;44.338;11.206;2023-01-05T00:42:34;22.02;;;12.98;;
53022;SDS011;38913;44.338;11.206;2023-01-05T00:45:00;24.90;;;13.38;;
53022;SDS011;38913;44.338;11.206;2023-01-05T00:47:25;23.70;;;12.98;;
53022;SDS011;38913;44.338;11.206;2023-01-05T00:49:51;25.05;;;12.95;;
53022;SDS011;38913;44.338;11.206;2023-01-05T00:52:16;22.00;;;12.40;;
53022;SDS011;38913;44.338;11.206;2023-01-05T00:54:41;23.50;;;12.93;;
53022;SDS011;38913;44.338;11.206;2023-01-05T00:57:10;24.90;;;13.10;;
53022;SDS011;38913;44.338;11.206;2023-01-05T00:59:36;25.90;;;12.57;;
53022;SDS011;38913;44.338;11.206;2023-01-05T01:02:02;20.65;;;11.88;;
53022;SDS011;38913;44.338;11.206;2023-01-05T01:04:29;21.83;;;12.95;;
53022;SDS011;38913;44.338;11.206;2023-01-05T01:06:55;20.83;;;12.20;;
53022;SDS011;38913;44.338;11.206;2023-01-05T01:09:21;25.80;;;13.25;;
53022;SDS011;38913;44.338;11.206;2023-01-05T01:11:46;22.15;;;13.23;;
53022;SDS011;38913;44.338;11.206;2023-01-05T01:14:12;22.65;;;12.23;;
53022;SDS011;38913;44.338;11.206;2023-01-05T01:16:39;20.17;;;12.00;;
53022;SDS011;38913;44.338;11.206;2023-01-05T01:19:05;22.00;;;12.52;;
53022;SDS011;38913;44.338;11.206;2023-01-05T01:21:31;22.25;;;12.15;;
53022;SDS011;38913;44.338;11.206;2023-01-05T01:23:56;21.48;;;11.75;;
53022;SDS011;38913;44.338;11.206;2023-01-05T01:26:23;20.42;;;10.88;;
53022;SDS011;38913;44.338;11.206;2023-01-05T01:28:48;18.20;;;10.70;;
53022;SDS011;38913;44.338;11.206;2023-01-05T01:31:13;20.65;;;11.32;;
53022;SDS011;38913;44.338;11.206;2023-01-05T01:33:39;21.05;;;11.93;;
53022;SDS011;38913;44.338;11.206;2023-01-05T01:36:06;19.77;;;11.45;;
53022;SDS011;38913;44.338;11.206;2023-01-05T01:38:32;18.77;;;11.02;;
53022;SDS011;38913;44.338;11.206;2023-01-05T01:41:07;21.08;;;11.93;;
53022;SDS011;38913;44.338;11.206;2023-01-05T01:43:48;18.23;;;10.70;;
53022;SDS011;38913;44.338;11.206;2023-01-05T01:46:16;20.63;;;11.38;;
53022;SDS011;38913;44.338;11.206;2023-01-05T01:48:45;21.58;;;11.73;;
53022;SDS011;38913;44.338;11.206;2023-01-05T01:51:15;17.33;;;11.20;;
53022;SDS011;38913;44.338;11.206;2023-01-05T01:53:47;22.20;;;12.05;;
53022;SDS011;38913;44.338;11.206;2023-01-05T01:56:16;19.65;;;10.88;;
53022;SDS011;38913;44.338;11.206;2023-01-05T01:58:45;19.77;;;10.25;;
53022;SDS011;38913;44.338;11.206;2023-01-05T02:01:10;18.85;;;10.93;;
53022;SDS011;38913;44.338;11.206;2023-01-05T02:03:37;20.00;;;11.02;;
53022;SDS011;38913;44.338;11.206;2023-01-05T02:06:03;19.08;;;11.93;;
53022;SDS011;38913;44.338;11.206;2023-01-05T02:08:29;19.70;;;11.00;;
53022;SDS011;38913;44.338;11.206;2023-01-05T02:36:26;19.58;;;9.63;;
53022;SDS011;38913;44.338;11.206;2023-01-05T02:41:36;18.02;;;9.45;;
53022;SDS011;38913;44.338;11.206;2023-01-05T02:44:17;17.70;;;10.27;;
53022;SDS011;38913;44.338;11.206;2023-01-05T02:46:43;15.40;;;9.23;;
53022;SDS011;38913;44.338;11.206;2023-01-05T02:49:10;16.77;;;9.93;;
53022;SDS011;38913;44.338;11.206;2023-01-05T02:51:38;16.65;;;9.70;;
53022;SDS011;38913;44.338;11.206;2023-01-05T02:54:13;16.70;;;9.93;;
53022;SDS011;38913;44.338;11.206;2023-01-05T02:56:44;14.35;;;9.43;;
53022;SDS011;38913;44.338;11.206;2023-01-05T02:59:14;15.00;;;8.52;;
53022;SDS011;38913;44.338;11.206;2023-01-05T03:01:51;15.32;;;8.68;;
53022;SDS011;38913;44.338;11.206;2023-01-05T03:04:30;13.80;;;8.63;;
53022;SDS011;38913;44.338;11.206;2023-01-05T03:07:01;14.15;;;8.73;;
53022;SDS011;38913;44.338;11.206;2023-01-05T03:09:31;14.77;;;9.20;;
53022;SDS011;38913;44.338;11.206;2023-01-05T03:15:09;15.50;;;9.25;;
53022;SDS011;38913;44.338;11.206;2023-01-05T03:17:47;16.50;;;9.05;;
53022;SDS011;38913;44.338;11.206;2023-01-05T03:20:15;14.65;;;8.88;;
53022;SDS011;38913;44.338;11.206;2023-01-05T03:22:45;14.93;;;9.15;;
53022;SDS011;38913;44.338;11.206;2023-01-05T03:28:20;14.65;;;8.23;;
53022;SDS011;38913;44.338;11.206;2023-01-05T03:37:14;16.30;;;8.90;;
53022;SDS011;38913;44.338;11.206;2023-01-05T03:39:43;13.13;;;7.75;;
53022;SDS011;38913;44.338;11.206;2023-01-05T03:42:11;15.30;;;9.13;;
53022;SDS011;38913;44.338;11.206;2023-01-05T03:44:38;13.07;;;8.15;;
53022;SDS011;38913;44.338;11.206;2023-01-05T03:47:05;13.02;;;8.25;;
53022;SDS011;38913;44.338;11.206;2023-01-05T03:49:31;12.52;;;8.02;;
53022;SDS011;38913;44.338;11.206;2023-01-05T03:51:56;13.98;;;8.77;;
53022;SDS011;38913;44.338;11.206;2023-01-05T03:54:22;12.55;;;8.23;;
53022;SDS011;38913;44.338;11.206;2023-01-05T03:56:47;14.48;;;8.75;;
53022;SDS011;38913;44.338;11.206;2023-01-05T03:59:13;13.70;;;8.20;;
53022;SDS011;38913;44.338;11.206;2023-01-05T04:01:38;10.90;;;7.43;;
53022;SDS011;38913;44.338;11.206;2023-01-05T04:04:04;13.88;;;8.77;;
53022;SDS011;38913;44.338;11.206;2023-01-05T04:06:29;12.20;;;7.82;;
53022;SDS011;38913;44.338;11.206;2023-01-05T04:08:55;11.88;;;8.50;;
53022;SDS011;38913;44.338;11.206;2023-01-05T04:11:21;11.60;;;7.35;;
53022;SDS011;38913;44.338;11.206;2023-01-05T04:13:47;11.90;;;7.70;;
53022;SDS011;38913;44.338;11.206;2023-01-05T04:16:13;13.82;;;8.05;;
53022;SDS011;38913;44.338;11.206;2023-01-05T04:18:39;11.57;;;7.80;;
53022;SDS011;38913;44.338;11.206;2023-01-05T04:21:04;12.90;;;7.97;;
53022;SDS011;38913;44.338;11.206;2023-01-05T04:23:30;12.95;;;9.02;;
53022;SDS011;38913;44.338;11.206;2023-01-05T04:25:56;13.82;;;8.40;;
53022;SDS011;38913;44.338;11.206;2023-01-05T04:28:21;14.05;;;8.38;;
53022;SDS011;38913;44.338;11.206;2023-01-05T04:30:51;14.02;;;8.13;;
53022;SDS011;38913;44.338;11.206;2023-01-05T04:33:18;11.55;;;7.18;;
53022;SDS011;38913;44.338;11.206;2023-01-05T04:35:44;12.25;;;7.50;;
53022;SDS011;38913;44.338;11.206;2023-01-05T04:38:10;11.90;;;7.18;;
53022;SDS011;38913;44.338;11.206;2023-01-05T04:40:36;11.13;;;7.22;;
53022;SDS011;38913;44.338;11.206;2023-01-05T04:43:02;10.15;;;6.38;;
53022;SDS011;38913;44.338;11.206;2023-01-05T04:45:28;10.13;;;7.03;;
53022;SDS011;38913;44.338;11.206;2023-01-05T04:47:53;11.02;;;7.22;;
53022;SDS011;38913;44.338;11.206;2023-01-05T04:50:19;10.73;;;7.15;;
53022;SDS011;38913;44.338;11.206;2023-01-05T04:52:44;10.77;;;7.03;;
53022;SDS011;38913;44.338;11.206;2023-01-05T04:55:10;12.35;;;7.47;;
53022;SDS011;38913;44.338;11.206;2023-01-05T04:57:35;12.23;;;7.47;;
53022;SDS011;38913;44.338;11.206;2023-01-05T05:00:01;12.02;;;7.18;;
53022;SDS011;38913;44.338;11.206;2023-01-05T05:02:28;10.50;;;7.18;;
53022;SDS011;38913;44.338;11.206;2023-01-05T05:04:53;10.27;;;7.03;;
53022;SDS011;38913;44.338;11.206;2023-01-05T05:07:19;9.77;;;6.47;;
53022;SDS011;38913;44.338;11.206;2023-01-05T05:09:44;9.88;;;6.40;;
53022;SDS011;38913;44.338;11.206;2023-01-05T05:12:10;10.70;;;6.95;;
53022;SDS011;38913;44.338;11.206;2023-01-05T05:14:35;9.52;;;6.88;;
53022;SDS011;38913;44.338;11.206;2023-01-05T05:17:01;10.10;;;6.43;;
53022;SDS011;38913;44.338;11.206;2023-01-05T05:19:26;10.48;;;7.28;;
53022;SDS011;38913;44.338;11.206;2023-01-05T05:21:52;10.05;;;6.63;;
53022;SDS011;38913;44.338;11.206;2023-01-05T05:24:17;11.32;;;7.00;;
53022;SDS011;38913;44.338;11.206;2023-01-05T05:26:43;13.25;;;7.82;;
53022;SDS011;38913;44.338;11.206;2023-01-05T05:29:08;13.95;;;7.50;;
53022;SDS011;38913;44.338;11.206;2023-01-05T05:31:34;11.75;;;7.38;;
53022;SDS011;38913;44.338;11.206;2023-01-05T05:34:00;10.25;;;6.18;;
53022;SDS011;38913;44.338;11.206;2023-01-05T05:36:26;10.05;;;6.40;;
53022;SDS011;38913;44.338;11.206;2023-01-05T05:38:51;12.63;;;7.15;;
53022;SDS011;38913;44.338;11.206;2023-01-05T05:41:17;10.00;;;6.15;;
53022;SDS011;38913;44.338;11.206;2023-01-05T05:43:42;9.77;;;6.25;;
53022;SDS011;38913;44.338;11.206;2023-01-05T05:46:07;9.05;;;6.32;;
53022;SDS011;38913;44.338;11.206;2023-01-05T05:48:33;10.95;;;6.80;;
53022;SDS011;38913;44.338;11.206;2023-01-05T05:50:58;7.90;;;6.43;;
53022;SDS011;38913;44.338;11.206;2023-01-05T05:53:24;9.75;;;5.97;;
53022;SDS011;38913;44.338;11.206;2023-01-05T05:55:49;10.43;;;6.78;;
53022;SDS011;38913;44.338;11.206;2023-01-05T05:58:16;10.43;;;6.70;;
53022;SDS011;38913;44.338;11.206;2023-01-05T06:00:42;9.05;;;6.30;;
53022;SDS011;38913;44.338;11.206;2023-01-05T06:03:08;9.50;;;5.97;;
53022;SDS011;38913;44.338;11.206;2023-01-05T06:05:33;10.55;;;6.13;;
53022;SDS011;38913;44.338;11.206;2023-01-05T06:07:59;9.57;;;6.28;;
53022;SDS011;38913;44.338;11.206;2023-01-05T06:10:24;8.88;;;6.07;;
53022;SDS011;38913;44.338;11.206;2023-01-05T06:12:51;8.52;;;5.80;;
53022;SDS011;38913;44.338;11.206;2023-01-05T06:15:18;10.23;;;6.40;;
53022;SDS011;38913;44.338;11.206;2023-01-05T06:17:44;9.02;;;6.30;;
53022;SDS011;38913;44.338;11.206;2023-01-05T06:20:10;8.88;;;6.15;;
53022;SDS011;38913;44.338;11.206;2023-01-05T06:22:35;8.55;;;6.35;;
53022;SDS011;38913;44.338;11.206;2023-01-05T06:25:01;7.93;;;6.18;;
53022;SDS011;38913;44.338;11.206;2023-01-05T06:27:27;12.38;;;6.75;;
53022;SDS011;38913;44.338;11.206;2023-01-05T06:29:52;8.55;;;6.50;;
53022;SDS011;38913;44.338;11.206;2023-01-05T06:32:18;10.75;;;6.15;;
53022;SDS011;38913;44.338;11.206;2023-01-05T06:34:43;10.18;;;6.95;;
53022;SDS011;38913;44.338;11.206;2023-01-05T06:37:08;10.43;;;6.53;;
53022;SDS011;38913;44.338;11.206;2023-01-05T06:39:34;9.35;;;5.90;;
53022;SDS011;38913;44.338;11.206;2023-01-05T06:41:59;8.85;;;6.30;;
53022;SDS011;38913;44.338;11.206;2023-01-05T06:44:25;12.23;;;6.93;;
53022;SDS011;38913;44.338;11.206;2023-01-05T06:46:50;15.48;;;9.65;;
53022;SDS011;38913;44.338;11.206;2023-01-05T06:49:16;15.05;;;11.45;;
53022;SDS011;38913;44.338;11.206;2023-01-05T06:51:41;12.85;;;10.25;;
53022;SDS011;38913;44.338;11.206;2023-01-05T06:54:07;9.35;;;7.07;;
53022;SDS011;38913;44.338;11.206;2023-01-05T06:56:32;11.27;;;7.22;;
53022;SDS011;38913;44.338;11.206;2023-01-05T06:58:58;9.20;;;6.97;;
53022;SDS011;38913;44.338;11.206;2023-01-05T07:01:23;7.65;;;6.07;;
53022;SDS011;38913;44.338;11.206;2023-01-05T07:03:49;9.45;;;6.80;;
53022;SDS011;38913;44.338;11.206;2023-01-05T07:06:14;10.93;;;7.38;;
53022;SDS011;38913;44.338;11.206;2023-01-05T07:08:40;17.33;;;10.40;;
53022;SDS011;38913;44.338;11.206;2023-01-05T07:11:06;12.23;;;7.30;;
53022;SDS011;38913;44.338;11.206;2023-01-05T07:13:32;17.40;;;10.63;;
53022;SDS011;38913;44.338;11.206;2023-01-05T07:15:57;12.85;;;8.65;;
53022;SDS011;38913;44.338;11.206;2023-01-05T07:18:23;11.85;;;8.30;;
53022;SDS011;38913;44.338;11.206;2023-01-05T07:20:49;13.27;;;7.68;;
53022;SDS011;38913;44.338;11.206;2023-01-05T07:23:14;11.38;;;7.43;;
53022;SDS011;38913;44.338;11.206;2023-01-05T07:25:39;9.57;;;7.22;;
53022;SDS011;38913;44.338;11.206;2023-01-05T07:28:05;10.27;;;7.13;;
53022;SDS011;38913;44.338;11.206;2023-01-05T07:30:30;9.10;;;6.57;;
53022;SDS011;38913;44.338;11.206;2023-01-05T07:32:56;9.55;;;6.32;;
53022;SDS011;38913;44.338;11.206;2023-01-05T07:35:23;11.57;;;6.57;;
53022;SDS011;38913;44.338;11.206;2023-01-05T07:37:48;10.98;;;6.97;;
53022;SDS011;38913;44.338;11.206;2023-01-05T07:40:14;12.60;;;7.15;;
53022;SDS011;38913;44.338;11.206;2023-01-05T07:42:39;12.35;;;6.65;;
53022;SDS011;38913;44.338;11.206;2023-01-05T07:45:05;10.02;;;6.10;;
53022;SDS011;38913;44.338;11.206;2023-01-05T07:47:31;9.25;;;5.80;;
53022;SDS011;38913;44.338;11.206;2023-01-05T07:49:57;8.57;;;6.30;;
53022;SDS011;38913;44.338;11.206;2023-01-05T07:52:22;9.55;;;6.13;;
53022;SDS011;38913;44.338;11.206;2023-01-05T07:54:48;9.27;;;7.22;;
53022;SDS011;38913;44.338;11.206;2023-01-05T07:57:13;9.57;;;6.63;;
53022;SDS011;38913;44.338;11.206;2023-01-05T07:59:38;8.65;;;6.35;;
53022;SDS011;38913;44.338;11.206;2023-01-05T08:02:04;9.73;;;6.40;;
53022;SDS011;38913;44.338;11.206;2023-01-05T08:04:30;9.07;;;6.45;;
53022;SDS011;38913;44.338;11.206;2023-01-05T08:06:55;9.05;;;6.93;;
53022;SDS011;38913;44.338;11.206;2023-01-05T08:09:20;13.18;;;9.77;;
53022;SDS011;38913;44.338;11.206;2023-01-05T08:12:05;10.02;;;5.53;;
53022;SDS011;38913;44.338;11.206;2023-01-05T08:14:30;11.48;;;6.18;;
53022;SDS011;38913;44.338;11.206;2023-01-05T08:16:56;8.82;;;5.72;;
53022;SDS011;38913;44.338;11.206;2023-01-05T08:19:21;7.55;;;5.30;;
53022;SDS011;38913;44.338;11.206;2023-01-05T08:21:47;8.02;;;5.55;;
53022;SDS011;38913;44.338;11.206;2023-01-05T08:24:12;7.07;;;5.47;;
53022;SDS011;38913;44.338;11.206;2023-01-05T08:26:38;5.97;;;5.15;;
53022;SDS011;38913;44.338;11.206;2023-01-05T08:29:03;8.02;;;5.82;;
53022;SDS011;38913;44.338;11.206;2023-01-05T08:31:29;7.35;;;5.63;;
53022;SDS011;38913;44.338;11.206;2023-01-05T08:34:01;6.70;;;5.38;;
53022;SDS011;38913;44.338;11.206;2023-01-05T08:36:27;11.40;;;7.15;;
53022;SDS011;38913;44.338;11.206;2023-01-05T08:38:55;13.30;;;8.65;;
53022;SDS011;38913;44.338;11.206;2023-01-05T08:41:24;7.55;;;5.55;;
53022;SDS011;38913;44.338;11.206;2023-01-05T08:43:54;9.95;;;5.53;;
53022;SDS011;38913;44.338;11.206;2023-01-05T08:46:23;9.25;;;6.60;;
53022;SDS011;38913;44.338;11.206;2023-01-05T08:48:50;10.63;;;8.13;;
53022;SDS011;38913;44.338;11.206;2023-01-05T08:51:17;10.60;;;7.82;;
53022;SDS011;38913;44.338;11.206;2023-01-05T08:53:43;7.30;;;6.25;;
53022;SDS011;38913;44.338;11.206;2023-01-05T08:56:09;8.15;;;6.18;;
53022;SDS011;38913;44.338;11.206;2023-01-05T08:58:38;7.07;;;5.78;;
53022;SDS011;38913;44.338;11.206;2023-01-05T09:04:19;11.75;;;8.23;;
53022;SDS011;38913;44.338;11.206;2023-01-05T09:06:44;8.18;;;6.30;;
53022;SDS011;38913;44.338;11.206;2023-01-05T09:09:10;7.03;;;4.90;;
53022;SDS011;38913;44.338;11.206;2023-01-05T09:14:57;5.78;;;4.68;;
53022;SDS011;38913;44.338;11.206;2023-01-05T09:17:22;9.75;;;4.75;;
53022;SDS011;38913;44.338;11.206;2023-01-05T09:19:48;8.85;;;5.80;;
53022;SDS011;38913;44.338;11.206;2023-01-05T09:22:13;6.20;;;4.60;;
53022;SDS011;38913;44.338;11.206;2023-01-05T09:24:38;6.53;;;4.97;;
53022;SDS011;38913;44.338;11.206;2023-01-05T09:27:04;6.88;;;4.75;;
53022;SDS011;38913;44.338;11.206;2023-01-05T09:29:31;5.57;;;5.03;;
53022;SDS011;38913;44.338;11.206;2023-01-05T09:31:59;6.63;;;5.95;;
53022;SDS011;38913;44.338;11.206;2023-01-05T09:34:25;7.55;;;4.63;;
53022;SDS011;38913;44.338;11.206;2023-01-05T09:36:50;5.38;;;4.63;;
53022;SDS011;38913;44.338;11.206;2023-01-05T09:39:15;5.20;;;4.40;;
53022;SDS011;38913;44.338;11.206;2023-01-05T09:42:15;6.07;;;4.70;;
53022;SDS011;38913;44.338;11.206;2023-01-05T09:44:39;5.85;;;4.22;;
53022;SDS011;38913;44.338;11.206;2023-01-05T09:49:37;4.60;;;4.20;;
53022;SDS011;38913;44.338;11.206;2023-01-05T09:52:07;6.72;;;4.63;;
53022;SDS011;38913;44.338;11.206;2023-01-05T09:54:35;5.10;;;4.43;;
53022;SDS011;38913;44.338;11.206;2023-01-05T09:57:02;6.05;;;4.60;;
53022;SDS011;38913;44.338;11.206;2023-01-05T09:59:48;5.30;;;4.85;;
53022;SDS011;38913;44.338;11.206;2023-01-05T10:02:17;5.32;;;4.60;;
53022;SDS011;38913;44.338;11.206;2023-01-05T10:04:48;4.90;;;3.88;;
53022;SDS011;38913;44.338;11.206;2023-01-05T10:13:08;6.88;;;6.00;;
53022;SDS011;38913;44.338;11.206;2023-01-05T10:15:47;6.28;;;5.75;;
53022;SDS011;38913;44.338;11.206;2023-01-05T10:18:22;6.32;;;5.82;;
53022;SDS011;38913;44.338;11.206;2023-01-05T10:23:46;7.00;;;6.40;;
53022;SDS011;38913;44.338;11.206;2023-01-05T10:26:18;6.78;;;6.13;;
53022;SDS011;38913;44.338;11.206;2023-01-05T10:29:02;5.90;;;5.30;;
53022;SDS011;38913;44.338;11.206;2023-01-05T10:31:44;5.47;;;4.97;;
53022;SDS011;38913;44.338;11.206;2023-01-05T10:34:46;5.95;;;5.35;;
53022;SDS011;38913;44.338;11.206;2023-01-05T10:39:57;5.55;;;5.05;;
53022;SDS011;38913;44.338;11.206;2023-01-05T10:42:37;6.63;;;5.18;;
53022;SDS011;38913;44.338;11.206;2023-01-05T10:45:13;8.35;;;5.18;;
53022;SDS011;38913;44.338;11.206;2023-01-05T10:47:40;5.13;;;4.45;;
53022;SDS011;38913;44.338;11.206;2023-01-05T10:52:54;5.32;;;4.30;;
53022;SDS011;38913;44.338;11.206;2023-01-05T10:55:28;4.55;;;3.97;;
53022;SDS011;38913;44.338;11.206;2023-01-05T10:57:54;6.50;;;4.70;;
53022;SDS011;38913;44.338;11.206;2023-01-05T11:03:03;5.10;;;4.53;;
53022;SDS011;38913;44.338;11.206;2023-01-05T11:05:35;4.50;;;4.10;;
53022;SDS011;38913;44.338;11.206;2023-01-05T11:08:15;6.18;;;3.80;;
53022;SDS011;38913;44.338;11.206;2023-01-05T11:10:54;4.20;;;3.80;;
53022;SDS011;38913;44.338;11.206;2023-01-05T11:16:06;5.18;;;4.47;;
53022;SDS011;38913;44.338;11.206;2023-01-05T11:18:46;4.57;;;3.45;;
53022;SDS011;38913;44.338;11.206;2023-01-05T11:21:20;3.92;;;2.92;;
53022;SDS011;38913;44.338;11.206;2023-01-05T11:23:48;2.65;;;2.13;;
53022;SDS011;38913;44.338;11.206;2023-01-05T11:34:04;4.22;;;2.88;;
53022;SDS011;38913;44.338;11.206;2023-01-05T11:36:33;4.18;;;2.40;;
53022;SDS011;38913;44.338;11.206;2023-01-05T11:38:59;5.03;;;2.92;;
53022;SDS011;38913;44.338;11.206;2023-01-05T11:41:25;5.20;;;3.40;;
53022;SDS011;38913;44.338;11.206;2023-01-05T11:43:51;5.60;;;2.08;;
53022;SDS011;38913;44.338;11.206;2023-01-05T11:46:18;4.10;;;2.72;;
53022;SDS011;38913;44.338;11.206;2023-01-05T11:48:50;4.53;;;3.10;;
53022;SDS011;38913;44.338;11.206;2023-01-05T11:51:40;6.45;;;3.03;;
53022;SDS011;38913;44.338;11.206;2023-01-05T11:54:07;4.43;;;3.40;;
53022;SDS011;38913;44.338;11.206;2023-01-05T11:57:05;2.80;;;2.30;;
53022;SDS011;38913;44.338;11.206;2023-01-05T11:59:36;6.03;;;2.97;;
53022;SDS011;38913;44.338;11.206;2023-01-05T12:05:06;4.32;;;3.20;;
53022;SDS011;38913;44.338;11.206;2023-01-05T12:07:55;5.60;;;3.33;;
53022;SDS011;38913;44.338;11.206;2023-01-05T12:21:21;4.90;;;3.45;;
53022;SDS011;38913;44.338;11.206;2023-01-05T12:23:55;6.50;;;4.20;;
53022;SDS011;38913;44.338;11.206;2023-01-05T12:27:06;4.25;;;3.33;;
53022;SDS011;38913;44.338;11.206;2023-01-05T12:32:38;8.73;;;4.15;;
53022;SDS011;38913;44.338;11.206;2023-01-05T12:35:15;7.05;;;4.35;;
53022;SDS011;38913;44.338;11.206;2023-01-05T12:46:43;10.68;;;6.40;;
53022;SDS011;38913;44.338;11.206;2023-01-05T12:49:21;8.25;;;5.38;;
53022;SDS011;38913;44.338;11.206;2023-01-05T12:51:52;16.55;;;9.80;;
53022;SDS011;38913;44.338;11.206;2023-01-05T12:54:48;8.95;;;5.68;;
53022;SDS011;38913;44.338;11.206;2023-01-05T12:57:28;15.80;;;9.45;;
53022;SDS011;38913;44.338;11.206;2023-01-05T13:02:36;9.10;;;5.70;;
53022;SDS011;38913;44.338;11.206;2023-01-05T13:05:40;12.30;;;7.32;;
53022;SDS011;38913;44.338;11.206;2023-01-05T13:08:16;7.03;;;4.30;;
53022;SDS011;38913;44.338;11.206;2023-01-05T13:13:53;5.20;;;3.63;;
53022;SDS011;38913;44.338;11.206;2023-01-05T13:16:23;6.75;;;4.07;;
53022;SDS011;38913;44.338;11.206;2023-01-05T13:19:13;6.88;;;4.68;;
53022;SDS011;38913;44.338;11.206;2023-01-05T13:21:49;7.22;;;5.28;;
53022;SDS011;38913;44.338;11.206;2023-01-05T13:24:18;7.60;;;4.75;;
53022;SDS011;38913;44.338;11.206;2023-01-05T13:26:52;4.63;;;3.90;;
53022;SDS011;38913;44.338;11.206;2023-01-05T13:29:22;17.10;;;11.20;;
53022;SDS011;38913;44.338;11.206;2023-01-05T13:31:57;15.02;;;9.48;;
53022;SDS011;38913;44.338;11.206;2023-01-05T13:40:45;9.65;;;6.03;;
53022;SDS011;38913;44.338;11.206;2023-01-05T13:56:46;5.30;;;3.95;;
53022;SDS011;38913;44.338;11.206;2023-01-05T13:59:27;4.90;;;3.85;;
53022;SDS011;38913;44.338;11.206;2023-01-05T14:01:54;5.35;;;4.40;;
53022;SDS011;38913;44.338;11.206;2023-01-05T14:04:28;7.95;;;4.40;;
53022;SDS011;38913;44.338;11.206;2023-01-05T14:07:02;8.75;;;5.82;;
53022;SDS011;38913;44.338;11.206;2023-01-05T14:12:47;8.82;;;6.32;;
53022;SDS011;38913;44.338;11.206;2023-01-05T14:15:34;17.65;;;10.43;;
53022;SDS011;38913;44.338;11.206;2023-01-05T14:18:11;14.85;;;9.48;;
53022;SDS011;38913;44.338;11.206;2023-01-05T14:20:56;10.43;;;6.63;;
53022;SDS011;38913;44.338;11.206;2023-01-05T14:33:59;12.43;;;7.50;;
53022;SDS011;38913;44.338;11.206;2023-01-05T14:36:41;8.80;;;6.35;;
53022;SDS011;38913;44.338;11.206;2023-01-05T14:41:42;7.90;;;5.85;;
53022;SDS011;38913;44.338;11.206;2023-01-05T14:44:20;11.70;;;6.75;;
53022;SDS011;38913;44.338;11.206;2023-01-05T14:46:52;8.55;;;5.75;;
53022;SDS011;38913;44.338;11.206;2023-01-05T14:49:28;6.18;;;4.03;;
53022;SDS011;38913;44.338;11.206;2023-01-05T14:51:59;6.65;;;4.00;;
53022;SDS011;38913;44.338;11.206;2023-01-05T14:57:33;4.78;;;3.70;;
53022;SDS011;38913;44.338;11.206;2023-01-05T15:02:28;4.28;;;3.00;;
53022;SDS011;38913;44.338;11.206;2023-01-05T15:04:58;6.28;;;3.63;;
53022;SDS011;38913;44.338;11.206;2023-01-05T15:25:00;4.38;;;3.70;;
53022;SDS011;38913;44.338;11.206;2023-01-05T15:27:35;4.45;;;3.05;;
53022;SDS011;38913;44.338;11.206;2023-01-05T15:30:11;4.43;;;3.35;;
53022;SDS011;38913;44.338;11.206;2023-01-05T15:32:47;11.32;;;7.03;;
53022;SDS011;38913;44.338;11.206;2023-01-05T15:35:39;8.13;;;5.15;;
53022;SDS011;38913;44.338;11.206;2023-01-05T15:38:21;7.90;;;5.35;;
53022;SDS011;38913;44.338;11.206;2023-01-05T15:40:52;3.65;;;2.25;;
53022;SDS011;38913;44.338;11.206;2023-01-05T15:43:35;6.07;;;4.47;;
53022;SDS011;38913;44.338;11.206;2023-01-05T15:46:03;5.80;;;4.22;;
53022;SDS011;38913;44.338;11.206;2023-01-05T15:48:34;5.93;;;3.70;;
53022;SDS011;38913;44.338;11.206;2023-01-05T15:51:04;6.68;;;4.78;;
53022;SDS011;38913;44.338;11.206;2023-01-05T15:53:37;11.30;;;6.82;;
53022;SDS011;38913;44.338;11.206;2023-01-05T15:56:25;7.03;;;5.43;;
53022;SDS011;38913;44.338;11.206;2023-01-05T15:58:56;9.27;;;6.53;;
53022;SDS011;38913;44.338;11.206;2023-01-05T16:01:22;12.90;;;8.18;;
53022;SDS011;38913;44.338;11.206;2023-01-05T16:03:48;11.15;;;7.72;;
53022;SDS011;38913;44.338;11.206;2023-01-05T16:06:16;9.27;;;6.88;;
53022;SDS011;38913;44.338;11.206;2023-01-05T16:08:46;10.23;;;7.43;;
53022;SDS011;38913;44.338;11.206;2023-01-05T16:11:15;14.68;;;10.38;;
53022;SDS011;38913;44.338;11.206;2023-01-05T16:14:09;10.95;;;7.28;;
53022;SDS011;38913;44.338;11.206;2023-01-05T16:16:42;6.55;;;5.00;;
53022;SDS011;38913;44.338;11.206;2023-01-05T16:19:55;9.70;;;5.90;;
53022;SDS011;38913;44.338;11.206;2023-01-05T16:27:37;13.57;;;8.13;;
53022;SDS011;38913;44.338;11.206;2023-01-05T16:33:39;13.43;;;8.90;;
53022;SDS011;38913;44.338;11.206;2023-01-05T16:38:33;18.92;;;10.98;;
53022;SDS011;38913;44.338;11.206;2023-01-05T16:41:12;16.42;;;10.57;;
53022;SDS011;38913;44.338;11.206;2023-01-05T16:43:48;14.30;;;9.43;;
53022;SDS011;38913;44.338;11.206;2023-01-05T16:49:49;17.52;;;10.90;;
53022;SDS011;38913;44.338;11.206;2023-01-05T16:52:18;18.95;;;11.60;;
53022;SDS011;38913;44.338;11.206;2023-01-05T16:54:45;23.00;;;12.13;;
53022;SDS011;38913;44.338;11.206;2023-01-05T17:05:22;23.60;;;12.40;;
53022;SDS011;38913;44.338;11.206;2023-01-05T17:08:03;23.15;;;13.00;;
53022;SDS011;38913;44.338;11.206;2023-01-05T17:10:29;24.13;;;13.35;;
53022;SDS011;38913;44.338;11.206;2023-01-05T17:12:58;21.70;;;13.18;;
53022;SDS011;38913;44.338;11.206;2023-01-05T17:15:28;21.27;;;13.68;;
53022;SDS011;38913;44.338;11.206;2023-01-05T17:17:56;19.70;;;12.95;;
53022;SDS011;38913;44.338;11.206;2023-01-05T17:20:23;25.40;;;13.85;;
53022;SDS011;38913;44.338;11.206;2023-01-05T17:22:52;22.08;;;12.38;;
53022;SDS011;38913;44.338;11.206;2023-01-05T17:25:18;22.60;;;12.68;;
53022;SDS011;38913;44.338;11.206;2023-01-05T17:27:44;22.33;;;13.02;;
53022;SDS011;38913;44.338;11.206;2023-01-05T17:30:11;23.27;;;13.93;;
53022;SDS011;38913;44.338;11.206;2023-01-05T17:32:40;24.38;;;13.52;;
53022;SDS011;38913;44.338;11.206;2023-01-05T17:35:05;21.27;;;12.90;;
53022;SDS011;38913;44.338;11.206;2023-01-05T17:37:31;21.67;;;12.93;;
53022;SDS011;38913;44.338;11.206;2023-01-05T17:39:56;21.88;;;12.80;;
53022;SDS011;38913;44.338;11.206;2023-01-05T17:42:22;25.55;;;14.18;;
53022;SDS011;38913;44.338;11.206;2023-01-05T17:45:06;53.60;;;28.83;;
53022;SDS011;38913;44.338;11.206;2023-01-05T17:47:32;23.75;;;12.85;;
53022;SDS011;38913;44.338;11.206;2023-01-05T17:49:58;28.50;;;16.52;;
53022;SDS011;38913;44.338;11.206;2023-01-05T17:52:23;26.73;;;15.52;;